Time;durP1;ratioP1;P1;durP2;ratioP2;P2;SDS_P1;SDS_P2;PMS_P1;PMS_P2;Temp;Humidity;BMP_temperature;BMP_pressure;BME280_temperature;BME280_humidity;BME280_pressure;Samples;Min_cycle;Max_cycle;Signal;HPM_P1;HPM_P2
2023/05/18 00:00:26;;;;;;;72.75;32.78;;;;;;;;;;6306450;28;20078;-86
2023/05/18 00:03:28;;;;;;;72.90;31.70;;;;;;;;;;6304278;28;20051;-86
2023/05/18 00:06:29;;;;;;;88.63;30.40;;;;;;;;;;6301462;28;20086;-85
2023/05/18 00:09:30;;;;;;;71.93;30.40;;;;;;;;;;6311627;28;20024;-85
2023/05/18 00:12:30;;;;;;;81.93;31.48;;;;;;;;;;6311499;28;20036;-87
2023/05/18 00:15:30;;;;;;;170.90;36.60;;;;;;;;;;6319625;28;20005;-83
2023/05/18 00:18:32;;;;;;;88.03;31.70;;;;;;;;;;6337591;28;20059;-83
2023/05/18 00:21:34;;;;;;;81.53;32.08;;;;;;;;;;6328623;28;20035;-82
2023/05/18 00:24:35;;;;;;;92.57;32.80;;;;;;;;;;6328110;28;20020;-82
2023/05/18 00:27:36;;;;;;;167.85;35.05;;;;;;;;;;6318723;28;20021;-86
2023/05/18 00:30:36;;;;;;;73.10;31.87;;;;;;;;;;6309257;28;20390;-84
2023/05/18 00:33:37;;;;;;;184.17;35.33;;;;;;;;;;6315887;28;20027;-85
2023/05/18 00:36:38;;;;;;;75.60;31.03;;;;;;;;;;6305721;28;20052;-84
2023/05/18 00:39:39;;;;;;;59.80;28.95;;;;;;;;;;6282047;28;20021;-85
2023/05/18 00:42:40;;;;;;;54.80;26.57;;;;;;;;;;6301179;28;20073;-85
2023/05/18 00:45:40;;;;;;;109.57;29.00;;;;;;;;;;6301346;28;20001;-86
2023/05/18 00:48:40;;;;;;;57.77;28.87;;;;;;;;;;6299794;28;20395;-82
2023/05/18 00:51:40;;;;;;;110.70;30.30;;;;;;;;;;6316305;28;20055;-80
2023/05/18 00:54:41;;;;;;;79.90;28.77;;;;;;;;;;6313200;28;20387;-80
2023/05/18 00:57:43;;;;;;;94.37;29.20;;;;;;;;;;6291764;28;20024;-80
2023/05/18 01:00:44;;;;;;;57.05;22.60;;;;;;;;;;6307680;28;20055;-79
2023/05/18 01:03:44;;;;;;;59.00;26.53;;;;;;;;;;6313248;28;20020;-79
2023/05/18 01:06:46;;;;;;;254.80;35.10;;;;;;;;;;6299716;28;20093;-79
2023/05/18 01:09:46;;;;;;;;;;;;;;;;;;6286266;28;20023;-79
2023/05/18 01:12:47;;;;;;;73.47;25.70;;;;;;;;;;6314089;28;19904;-79
2023/05/18 01:15:51;;;;;;;57.03;23.95;;;;;;;;;;6300259;28;20034;-80
2023/05/18 01:19:01;;;;;;;140.35;30.20;;;;;;;;;;6299370;28;20427;-80
2023/05/18 01:22:11;;;;;;;198.63;32.75;;;;;;;;;;6305889;28;20027;-80
2023/05/18 01:25:32;;;;;;;70.40;28.60;;;;;;;;;;6298651;28;20025;-80
2023/05/18 01:28:32;;;;;;;91.05;29.48;;;;;;;;;;6281435;28;20564;-80
2023/05/18 01:31:33;;;;;;;111.33;26.93;;;;;;;;;;6280771;28;20060;-80
2023/05/18 01:34:33;;;;;;;73.70;27.13;;;;;;;;;;6306908;28;20113;-79
2023/05/18 01:37:34;;;;;;;116.37;27.97;;;;;;;;;;6300913;28;20432;-80
2023/05/18 01:40:36;;;;;;;74.87;32.77;;;;;;;;;;6300599;28;20382;-79
2023/05/18 01:43:40;;;;;;;81.60;30.20;;;;;;;;;;6306378;28;20620;-80
2023/05/18 01:46:47;;;;;;;59.58;24.60;;;;;;;;;;6306447;28;20016;-80
2023/05/18 01:49:59;;;;;;;146.35;29.70;;;;;;;;;;6281172;28;20016;-80
2023/05/18 01:53:05;;;;;;;60.08;23.55;;;;;;;;;;6327766;27;20027;-80
2023/05/18 01:56:07;;;;;;;275.42;34.80;;;;;;;;;;6327286;28;20107;-80
2023/05/18 01:59:07;;;;;;;;;;;;;;;;;;6320192;28;20031;-80
2023/05/18 02:02:07;;;;;;;53.90;22.52;;;;;;;;;;6331244;28;19911;-80
2023/05/18 02:05:11;;;;;;;60.30;23.53;;;;;;;;;;6336681;28;20050;-80
2023/05/18 02:08:11;;;;;;;66.53;22.90;;;;;;;;;;6317467;28;20011;-80
2023/05/18 02:11:11;;;;;;;57.20;21.63;;;;;;;;;;6304261;28;20032;-83
2023/05/18 02:14:11;;;;;;;61.67;22.83;;;;;;;;;;6319838;28;20020;-83
2023/05/18 02:17:11;;;;;;;70.70;24.87;;;;;;;;;;6319561;28;20023;-83
2023/05/18 02:20:12;;;;;;;74.57;26.53;;;;;;;;;;6307663;28;20039;-83
2023/05/18 02:23:12;;;;;;;81.13;29.60;;;;;;;;;;6309495;28;20397;-82
2023/05/18 02:26:12;;;;;;;59.10;25.67;;;;;;;;;;6330618;28;20469;-83
2023/05/18 02:29:13;;;;;;;73.07;26.63;;;;;;;;;;6309595;28;20063;-83
2023/05/18 02:32:13;;;;;;;71.27;27.67;;;;;;;;;;6335609;28;20161;-82
2023/05/18 02:35:15;;;;;;;85.33;31.00;;;;;;;;;;6326006;28;20034;-84
2023/05/18 02:38:15;;;;;;;89.60;30.25;;;;;;;;;;6332721;28;20020;-84
2023/05/18 02:41:15;;;;;;;80.68;30.10;;;;;;;;;;6337298;28;20047;-84
2023/05/18 02:44:15;;;;;;;89.87;28.73;;;;;;;;;;6329497;28;20020;-83
2023/05/18 02:47:15;;;;;;;81.88;29.23;;;;;;;;;;6337765;28;20098;-84
2023/05/18 02:50:16;;;;;;;87.63;31.83;;;;;;;;;;6340895;28;20039;-84
2023/05/18 02:53:16;;;;;;;70.20;25.73;;;;;;;;;;6323171;27;20035;-84
2023/05/18 02:56:16;;;;;;;83.37;29.27;;;;;;;;;;6336974;28;20075;-84
2023/05/18 02:59:16;;;;;;;64.30;24.77;;;;;;;;;;6333897;28;20024;-84
2023/05/18 03:02:17;;;;;;;84.97;27.77;;;;;;;;;;6335478;28;20031;-84
2023/05/18 03:05:22;;;;;;;79.60;27.43;;;;;;;;;;6301868;28;20020;-84
2023/05/18 03:08:25;;;;;;;72.50;29.42;;;;;;;;;;6326716;28;20023;-83
2023/05/18 03:11:25;;;;;;;83.68;29.42;;;;;;;;;;6341800;28;20015;-80
2023/05/18 03:14:26;;;;;;;73.93;28.60;;;;;;;;;;6309123;28;20027;-80
2023/05/18 03:17:26;;;;;;;71.80;25.73;;;;;;;;;;6333909;28;20016;-79
2023/05/18 03:20:26;;;;;;;68.97;24.97;;;;;;;;;;6311076;28;20025;-80
2023/05/18 03:23:27;;;;;;;51.87;20.77;;;;;;;;;;6337410;28;20019;-79
2023/05/18 03:26:29;;;;;;;73.20;27.40;;;;;;;;;;6333452;28;20107;-80
2023/05/18 03:29:30;;;;;;;74.97;31.38;;;;;;;;;;6329114;28;20381;-78
2023/05/18 03:32:32;;;;;;;80.27;33.03;;;;;;;;;;6314477;28;20051;-80
2023/05/18 03:35:34;;;;;;;81.00;31.67;;;;;;;;;;6320962;28;20024;-80
2023/05/18 03:38:34;;;;;;;69.90;26.27;;;;;;;;;;6327981;28;20030;-80
2023/05/18 03:41:34;;;;;;;73.60;26.23;;;;;;;;;;6312816;28;20016;-80
2023/05/18 03:44:34;;;;;;;68.13;24.67;;;;;;;;;;6309855;28;20016;-80
2023/05/18 03:47:36;;;;;;;64.37;21.70;;;;;;;;;;6329073;28;20099;-80
2023/05/18 03:50:36;;;;;;;61.92;23.73;;;;;;;;;;6307956;28;20388;-80
2023/05/18 03:53:36;;;;;;;67.07;26.63;;;;;;;;;;6303753;28;20012;-80
2023/05/18 03:56:36;;;;;;;70.63;28.73;;;;;;;;;;6311160;28;20017;-80
2023/05/18 03:59:37;;;;;;;67.07;25.20;;;;;;;;;;6287300;28;20027;-81
2023/05/18 04:02:37;;;;;;;60.33;25.47;;;;;;;;;;6295652;28;20409;-80
2023/05/18 04:05:38;;;;;;;71.93;25.30;;;;;;;;;;6294213;28;20067;-81
2023/05/18 04:08:39;;;;;;;71.17;26.33;;;;;;;;;;6303644;28;20009;-81
2023/05/18 04:11:40;;;;;;;87.67;24.53;;;;;;;;;;6307201;28;20032;-80
2023/05/18 04:14:41;;;;;;;46.07;21.40;;;;;;;;;;6284713;28;20139;-81
2023/05/18 04:17:44;;;;;;;58.40;22.75;;;;;;;;;;6311264;28;20024;-81
2023/05/18 04:20:44;;;;;;;62.85;23.15;;;;;;;;;;6303858;28;20024;-81
2023/05/18 04:23:46;;;;;;;67.43;22.97;;;;;;;;;;6310530;28;20013;-80
2023/05/18 04:26:47;;;;;;;57.05;24.33;;;;;;;;;;6293953;28;20146;-81
2023/05/18 04:29:48;;;;;;;65.28;26.35;;;;;;;;;;6302834;28;20025;-81
2023/05/18 04:32:49;;;;;;;62.58;24.27;;;;;;;;;;6305863;28;20024;-81
2023/05/18 04:35:57;;;;;;;57.17;24.10;;;;;;;;;;6297452;28;20066;-81
2023/05/18 04:38:57;;;;;;;67.43;22.20;;;;;;;;;;6305005;28;20016;-81
2023/05/18 04:41:58;;;;;;;51.40;19.93;;;;;;;;;;6297623;28;20077;-81
2023/05/18 04:44:59;;;;;;;50.63;20.83;;;;;;;;;;6307054;28;20059;-81
2023/05/18 04:48:00;;;;;;;68.60;21.00;;;;;;;;;;6309284;28;20021;-81
2023/05/18 04:51:03;;;;;;;48.42;19.35;;;;;;;;;;6312725;28;20087;-81
2023/05/18 04:54:05;;;;;;;68.85;23.13;;;;;;;;;;6313740;28;20024;-81
2023/05/18 04:57:05;;;;;;;;;;;;;;;;;;6307771;28;20162;-81
2023/05/18 05:00:08;;;;;;;56.35;21.30;;;;;;;;;;6302379;28;19920;-81
2023/05/18 05:03:09;;;;;;;49.22;21.30;;;;;;;;;;6310770;28;20020;-82
2023/05/18 05:06:09;;;;;;;51.57;20.70;;;;;;;;;;6298647;28;20437;-81
2023/05/18 05:09:12;;;;;;;51.47;20.23;;;;;;;;;;6309368;28;20379;-82
2023/05/18 05:12:13;;;;;;;55.95;19.10;;;;;;;;;;6309022;28;20533;-82
2023/05/18 05:15:13;;;;;;;50.70;17.87;;;;;;;;;;6308972;28;20020;-82
2023/05/18 05:18:13;;;;;;;44.77;18.73;;;;;;;;;;6313662;28;20031;-82
2023/05/18 05:21:14;;;;;;;46.10;18.23;;;;;;;;;;6307364;28;20233;-81
2023/05/18 05:24:14;;;;;;;47.93;18.03;;;;;;;;;;6305977;28;20153;-81
2023/05/18 05:27:14;;;;;;;40.97;16.20;;;;;;;;;;6307954;28;20021;-81
2023/05/18 05:30:15;;;;;;;41.90;14.97;;;;;;;;;;6308443;28;20776;-85
2023/05/18 05:33:16;;;;;;;43.53;16.20;;;;;;;;;;6314826;28;20043;-85
2023/05/18 05:36:16;;;;;;;41.03;15.00;;;;;;;;;;6319702;28;20032;-86
2023/05/18 05:39:16;;;;;;;31.33;13.53;;;;;;;;;;6287368;28;20036;-85
2023/05/18 05:42:16;;;;;;;38.40;14.37;;;;;;;;;;6316481;28;20024;-86
2023/05/18 05:45:16;;;;;;;29.40;13.30;;;;;;;;;;6316350;28;20379;-87
2023/05/18 05:48:17;;;;;;;49.40;13.40;;;;;;;;;;6313777;28;20080;-86
2023/05/18 05:51:17;;;;;;;34.67;13.07;;;;;;;;;;6305986;28;20051;-86
2023/05/18 05:54:17;;;;;;;38.58;11.95;;;;;;;;;;6310812;28;20028;-86
2023/05/18 05:57:17;;;;;;;32.17;11.60;;;;;;;;;;6321259;28;20043;-86
2023/05/18 06:00:18;;;;;;;27.30;12.20;;;;;;;;;;6304375;28;20063;-87
2023/05/18 06:03:18;;;;;;;37.63;14.37;;;;;;;;;;6319567;28;20082;-87
2023/05/18 06:06:18;;;;;;;32.80;12.48;;;;;;;;;;6311150;28;20028;-87
2023/05/18 06:09:19;;;;;;;32.00;12.10;;;;;;;;;;6296922;28;20020;-87
2023/05/18 06:12:20;;;;;;;33.63;13.20;;;;;;;;;;6323371;28;20065;-88
2023/05/18 06:15:20;;;;;;;34.60;14.43;;;;;;;;;;6308791;28;20025;-88
2023/05/18 06:18:21;;;;;;;28.97;12.63;;;;;;;;;;6281483;28;20040;-87
2023/05/18 06:21:21;;;;;;;24.40;11.30;;;;;;;;;;6302077;28;20080;-86
2023/05/18 06:24:22;;;;;;;35.67;13.10;;;;;;;;;;6305260;28;20016;-88
2023/05/18 06:27:22;;;;;;;26.37;11.87;;;;;;;;;;6311689;28;20475;-85
2023/05/18 06:30:22;;;;;;;24.90;10.33;;;;;;;;;;6305272;28;20137;-88
2023/05/18 06:33:24;;;;;;;30.97;10.67;;;;;;;;;;6309713;28;20028;-86
2023/05/18 06:36:24;;;;;;;25.35;12.10;;;;;;;;;;6306884;28;20020;-87
2023/05/18 06:39:24;;;;;;;24.43;10.23;;;;;;;;;;6312222;28;20054;-86
2023/05/18 06:42:24;;;;;;;21.90;10.33;;;;;;;;;;6312466;28;20032;-85
2023/05/18 06:45:24;;;;;;;27.53;11.60;;;;;;;;;;6325451;28;20063;-85
2023/05/18 06:48:25;;;;;;;26.60;9.53;;;;;;;;;;6317530;28;20016;-85
2023/05/18 06:51:26;;;;;;;26.80;11.95;;;;;;;;;;6311828;28;20032;-86
2023/05/18 06:54:28;;;;;;;26.80;10.30;;;;;;;;;;6353352;27;20033;-85
2023/05/18 06:57:28;;;;;;;26.40;11.90;;;;;;;;;;6348360;27;20024;-85
2023/05/18 07:00:29;;;;;;;24.77;11.47;;;;;;;;;;6376314;27;20027;-85
2023/05/18 07:03:29;;;;;;;23.17;12.17;;;;;;;;;;6368851;27;20054;-85
2023/05/18 07:06:30;;;;;;;29.23;9.77;;;;;;;;;;6354190;27;20079;-84
2023/05/18 07:09:31;;;;;;;29.65;11.95;;;;;;;;;;6345427;27;20050;-84
2023/05/18 07:12:31;;;;;;;32.53;16.83;;;;;;;;;;6356650;28;20019;-85
2023/05/18 07:15:31;;;;;;;42.73;16.63;;;;;;;;;;6362642;28;20026;-85
2023/05/18 07:18:32;;;;;;;26.53;12.37;;;;;;;;;;6351536;28;20027;-84
2023/05/18 07:21:33;;;;;;;20.00;9.93;;;;;;;;;;6364075;28;20008;-84
2023/05/18 07:24:33;;;;;;;27.00;9.77;;;;;;;;;;6361757;28;20064;-83
2023/05/18 07:27:33;;;;;;;25.80;9.70;;;;;;;;;;6374472;28;20425;-84
2023/05/18 07:30:35;;;;;;;22.97;11.23;;;;;;;;;;6347688;28;20044;-84
2023/05/18 07:33:35;;;;;;;28.38;12.68;;;;;;;;;;6361819;28;20053;-82
2023/05/18 07:36:35;;;;;;;33.75;17.48;;;;;;;;;;6352313;28;20020;-83
2023/05/18 07:39:36;;;;;;;27.17;11.63;;;;;;;;;;6348932;28;20068;-82
2023/05/18 07:42:37;;;;;;;29.30;10.77;;;;;;;;;;6355369;27;20020;-83
2023/05/18 07:45:38;;;;;;;17.83;9.70;;;;;;;;;;6361131;27;20094;-82
2023/05/18 07:48:39;;;;;;;21.98;12.57;;;;;;;;;;6360638;27;20098;-83
2023/05/18 07:51:41;;;;;;;25.70;11.47;;;;;;;;;;6337936;27;20405;-82
2023/05/18 07:54:41;;;;;;;23.92;10.50;;;;;;;;;;6336693;27;20027;-83
2023/05/18 07:57:41;;;;;;;23.67;10.80;;;;;;;;;;6361098;27;20397;-83
2023/05/18 08:00:43;;;;;;;27.10;11.17;;;;;;;;;;6340221;27;20020;-78
2023/05/18 08:03:43;;;;;;;35.63;12.80;;;;;;;;;;6358162;27;20018;-78
2023/05/18 08:06:44;;;;;;;26.60;11.73;;;;;;;;;;6359732;27;20461;-78
2023/05/18 08:09:44;;;;;;;23.13;10.27;;;;;;;;;;6340444;27;20110;-78
2023/05/18 08:12:44;;;;;;;21.93;10.37;;;;;;;;;;6360689;27;20008;-78
2023/05/18 08:15:45;;;;;;;17.67;8.67;;;;;;;;;;6351176;27;20070;-77
2023/05/18 08:18:45;;;;;;;23.87;9.33;;;;;;;;;;6334084;28;20454;-77
2023/05/18 08:21:45;;;;;;;20.67;9.67;;;;;;;;;;6354883;27;20451;-78
2023/05/18 08:24:45;;;;;;;19.67;9.63;;;;;;;;;;6341238;27;20015;-78
2023/05/18 08:27:45;;;;;;;20.23;8.67;;;;;;;;;;6368818;27;20023;-77
2023/05/18 08:30:46;;;;;;;19.60;7.90;;;;;;;;;;6369412;27;20019;-77
2023/05/18 08:33:47;;;;;;;18.97;7.77;;;;;;;;;;6368290;27;20026;-77
2023/05/18 08:36:47;;;;;;;23.67;8.60;;;;;;;;;;6356882;27;20026;-79
2023/05/18 08:39:47;;;;;;;17.97;8.30;;;;;;;;;;6357550;27;20057;-78
2023/05/18 08:43:00;;;;;;;19.27;10.47;;;;;;;;;;6341811;27;20118;-77
2023/05/18 08:46:03;;;;;;;21.30;9.25;;;;;;;;;;6359068;27;20087;-77
2023/05/18 08:49:03;;;;;;;22.55;9.98;;;;;;;;;;6356405;27;20156;-77
2023/05/18 08:52:04;;;;;;;21.60;8.93;;;;;;;;;;6364819;27;20047;-77
2023/05/18 08:55:06;;;;;;;22.45;9.20;;;;;;;;;;6348367;27;20043;-77
2023/05/18 08:58:08;;;;;;;17.47;7.87;;;;;;;;;;6352099;27;20050;-78
2023/05/18 09:01:08;;;;;;;16.70;8.20;;;;;;;;;;6364373;27;20027;-82
2023/05/18 09:04:09;;;;;;;20.03;10.83;;;;;;;;;;6337632;27;20049;-83
2023/05/18 09:07:09;;;;;;;19.93;8.40;;;;;;;;;;6349462;27;20007;-83
2023/05/18 09:10:10;;;;;;;25.80;8.07;;;;;;;;;;6357162;27;20035;-82
2023/05/18 09:13:11;;;;;;;23.10;8.67;;;;;;;;;;6355728;27;20023;-83
2023/05/18 09:16:12;;;;;;;22.25;7.63;;;;;;;;;;6356332;27;20051;-82
2023/05/18 09:19:12;;;;;;;22.23;8.27;;;;;;;;;;6339661;27;20037;-83
2023/05/18 09:22:13;;;;;;;29.20;13.30;;;;;;;;;;6346870;27;20579;-82
2023/05/18 09:25:15;;;;;;;27.67;11.85;;;;;;;;;;6356416;27;20023;-82
2023/05/18 09:28:34;;;;;;;27.23;10.57;;;;;;;;;;6349751;27;20492;-83
2023/05/18 09:31:35;;;;;;;24.10;9.63;;;;;;;;;;6356128;27;20023;-82
2023/05/18 09:34:40;;;;;;;19.30;7.50;;;;;;;;;;6356023;27;20696;-82
2023/05/18 09:37:41;;;;;;;17.10;7.47;;;;;;;;;;6344261;27;20023;-82
2023/05/18 09:40:44;;;;;;;19.00;7.87;;;;;;;;;;6350978;27;20469;-82
2023/05/18 09:43:46;;;;;;;18.92;8.20;;;;;;;;;;6354112;27;20077;-82
2023/05/18 09:46:47;;;;;;;13.35;7.03;;;;;;;;;;6357966;27;20011;-82
2023/05/18 09:49:47;;;;;;;17.73;7.17;;;;;;;;;;6356358;27;20034;-82
2023/05/18 09:52:48;;;;;;;18.90;7.77;;;;;;;;;;6347884;27;20046;-82
2023/05/18 09:55:49;;;;;;;18.40;6.90;;;;;;;;;;6362981;27;20102;-82
2023/05/18 09:58:49;;;;;;;21.27;6.90;;;;;;;;;;6348889;27;20035;-82
2023/05/18 10:02:01;;;;;;;16.67;6.78;;;;;;;;;;6365147;27;20374;-82
2023/05/18 10:05:02;;;;;;;17.92;6.82;;;;;;;;;;6352124;27;20443;-82
2023/05/18 10:08:02;;;;;;;15.88;6.97;;;;;;;;;;6347332;27;20487;-81
2023/05/18 10:11:03;;;;;;;13.27;6.43;;;;;;;;;;6361896;27;20031;-82
2023/05/18 10:14:03;;;;;;;13.50;6.80;;;;;;;;;;6360367;27;20011;-82
2023/05/18 10:17:03;;;;;;;14.80;6.87;;;;;;;;;;6348238;27;20020;-82
2023/05/18 10:20:07;;;;;;;14.90;6.70;;;;;;;;;;6346917;27;20500;-82
2023/05/18 10:23:08;;;;;;;28.08;7.75;;;;;;;;;;6333875;27;20435;-82
2023/05/18 10:26:09;;;;;;;21.90;7.27;;;;;;;;;;6347897;27;20443;-81
2023/05/18 10:29:09;;;;;;;19.73;6.43;;;;;;;;;;6354598;27;20364;-82
2023/05/18 10:32:11;;;;;;;14.17;6.97;;;;;;;;;;6350555;27;20027;-82
2023/05/18 10:35:12;;;;;;;21.70;6.78;;;;;;;;;;6329353;27;20023;-82
2023/05/18 10:38:12;;;;;;;19.97;6.33;;;;;;;;;;6368580;27;20019;-82
2023/05/18 10:41:13;;;;;;;15.50;7.77;;;;;;;;;;6357718;27;20018;-82
2023/05/18 10:44:14;;;;;;;13.10;5.97;;;;;;;;;;6352753;27;20691;-82
2023/05/18 10:47:14;;;;;;;17.93;8.37;;;;;;;;;;6355426;27;20022;-82
2023/05/18 10:50:15;;;;;;;19.17;8.07;;;;;;;;;;6359843;27;20040;-82
2023/05/18 10:53:16;;;;;;;17.30;7.30;;;;;;;;;;6355471;27;20015;-82
2023/05/18 10:56:18;;;;;;;17.77;7.25;;;;;;;;;;6357841;27;20031;-81
2023/05/18 10:59:19;;;;;;;15.32;6.80;;;;;;;;;;6366127;27;20015;-82
2023/05/18 11:02:20;;;;;;;20.60;6.17;;;;;;;;;;6367377;27;20019;-81
2023/05/18 11:05:24;;;;;;;12.67;6.83;;;;;;;;;;6349760;27;20420;-81
2023/05/18 11:08:28;;;;;;;12.55;6.53;;;;;;;;;;6357629;27;20019;-81
2023/05/18 11:11:29;;;;;;;15.90;6.30;;;;;;;;;;6350082;27;20053;-82
2023/05/18 11:14:29;;;;;;;14.40;6.27;;;;;;;;;;6350301;28;20024;-80
2023/05/18 11:17:30;;;;;;;15.63;7.20;;;;;;;;;;6356962;28;20261;-82
2023/05/18 11:20:30;;;;;;;19.23;7.37;;;;;;;;;;6360179;28;20036;-76
2023/05/18 11:23:33;;;;;;;16.57;6.83;;;;;;;;;;6358543;28;20026;-77
2023/05/18 11:26:37;;;;;;;15.13;6.05;;;;;;;;;;6339819;28;20011;-76
2023/05/18 11:29:43;;;;;;;11.95;5.28;;;;;;;;;;6341717;28;20019;-76
2023/05/18 11:32:48;;;;;;;13.93;5.20;;;;;;;;;;6336324;28;20103;-81
2023/05/18 11:36:07;;;;;;;11.32;5.55;;;;;;;;;;6352407;28;20500;-81
2023/05/18 11:39:09;;;;;;;15.73;5.65;;;;;;;;;;6345142;28;20133;-82
2023/05/18 11:42:10;;;;;;;13.07;5.63;;;;;;;;;;6338433;28;20106;-81
2023/05/18 11:45:11;;;;;;;16.47;6.77;;;;;;;;;;6346928;28;20018;-83
2023/05/18 11:48:12;;;;;;;22.05;8.25;;;;;;;;;;6358787;28;20483;-83
2023/05/18 11:51:12;;;;;;;14.17;5.50;;;;;;;;;;6359153;28;20051;-84
2023/05/18 11:54:12;;;;;;;18.50;7.57;;;;;;;;;;6353757;27;20023;-81
2023/05/18 11:57:15;;;;;;;18.00;9.07;;;;;;;;;;6358135;28;20098;-84
2023/05/18 12:00:15;;;;;;;18.45;7.85;;;;;;;;;;6358579;28;20086;-83
2023/05/18 12:03:16;;;;;;;18.70;6.90;;;;;;;;;;6354631;28;20022;-82
2023/05/18 12:06:17;;;;;;;26.73;8.73;;;;;;;;;;6356327;28;20148;-83
2023/05/18 12:09:17;;;;;;;17.37;5.97;;;;;;;;;;6351033;28;20029;-84
2023/05/18 12:12:18;;;;;;;12.33;5.73;;;;;;;;;;6357134;28;20365;-83
2023/05/18 12:15:22;;;;;;;24.70;6.72;;;;;;;;;;6340711;28;20034;-83
2023/05/18 12:18:24;;;;;;;19.45;7.18;;;;;;;;;;6360303;28;20102;-82
2023/05/18 12:21:24;;;;;;;17.60;6.90;;;;;;;;;;6353283;28;20019;-84
2023/05/18 12:24:24;;;;;;;11.57;6.00;;;;;;;;;;6355122;28;20068;-82
2023/05/18 12:27:25;;;;;;;14.50;6.20;;;;;;;;;;6354843;27;20020;-83
2023/05/18 12:30:33;;;;;;;15.50;6.00;;;;;;;;;;6363132;27;20011;-82
2023/05/18 12:33:33;;;;;;;14.05;5.95;;;;;;;;;;6359426;27;20089;-83
2023/05/18 12:36:39;;;;;;;18.67;5.73;;;;;;;;;;6359350;27;20828;-82
2023/05/18 12:39:39;;;;;;;17.42;8.20;;;;;;;;;;6358293;27;20039;-83
2023/05/18 12:42:49;;;;;;;13.53;6.10;;;;;;;;;;6340664;27;20115;-77
2023/05/18 12:45:49;;;;;;;17.23;7.25;;;;;;;;;;6358632;27;20050;-77
2023/05/18 12:48:57;;;;;;;14.70;7.27;;;;;;;;;;6359052;27;20034;-77
2023/05/18 12:51:57;;;;;;;14.95;7.25;;;;;;;;;;6332754;27;20048;-77
2023/05/18 12:54:58;;;;;;;18.43;7.07;;;;;;;;;;6333052;28;20482;-78
2023/05/18 12:57:59;;;;;;;14.85;6.97;;;;;;;;;;6325103;28;20677;-77
2023/05/18 13:01:05;;;;;;;16.03;7.53;;;;;;;;;;6326234;28;20023;-77
2023/05/18 13:04:09;;;;;;;13.15;6.93;;;;;;;;;;6303591;28;20461;-77
2023/05/18 13:07:10;;;;;;;18.00;7.05;;;;;;;;;;6331299;28;20086;-77
2023/05/18 13:10:11;;;;;;;17.13;7.20;;;;;;;;;;6308792;28;20029;-78
2023/05/18 13:13:15;;;;;;;21.95;7.85;;;;;;;;;;6321929;28;20630;-77
2023/05/18 13:16:15;;;;;;;19.60;8.23;;;;;;;;;;6317119;28;20041;-77
2023/05/18 13:19:17;;;;;;;21.57;8.70;;;;;;;;;;6314608;28;20040;-77
2023/05/18 13:22:18;;;;;;;14.68;8.02;;;;;;;;;;6336134;28;20500;-77
2023/05/18 13:25:18;;;;;;;20.47;8.43;;;;;;;;;;6314715;28;20019;-77
2023/05/18 13:28:19;;;;;;;14.97;6.70;;;;;;;;;;6333372;28;20014;-76
2023/05/18 13:31:19;;;;;;;13.33;6.90;;;;;;;;;;6336317;28;20428;-76
2023/05/18 13:34:19;;;;;;;14.03;7.10;;;;;;;;;;6312025;28;20429;-76
2023/05/18 13:37:20;;;;;;;13.57;6.57;;;;;;;;;;6329103;28;20020;-76
2023/05/18 13:40:20;;;;;;;20.27;7.20;;;;;;;;;;6300609;28;20020;-83
2023/05/18 13:43:21;;;;;;;14.77;6.77;;;;;;;;;;6328663;28;20061;-82
2023/05/18 13:46:21;;;;;;;14.30;7.03;;;;;;;;;;6334745;27;20066;-82
2023/05/18 13:49:22;;;;;;;22.20;7.63;;;;;;;;;;6329603;28;20019;-83
2023/05/18 13:52:22;;;;;;;15.33;7.83;;;;;;;;;;6337754;27;20046;-84
2023/05/18 13:55:22;;;;;;;15.57;8.30;;;;;;;;;;6315736;28;20045;-84
2023/05/18 13:58:22;;;;;;;22.17;8.50;;;;;;;;;;6308003;28;20456;-83
2023/05/18 14:01:22;;;;;;;16.27;7.90;;;;;;;;;;6332888;28;20035;-80
2023/05/18 14:04:23;;;;;;;17.17;7.10;;;;;;;;;;6308268;28;20069;-83
2023/05/18 14:07:23;;;;;;;18.90;7.87;;;;;;;;;;6310636;28;20436;-83
2023/05/18 14:10:24;;;;;;;19.23;8.97;;;;;;;;;;6327086;27;20054;-85
2023/05/18 14:13:24;;;;;;;22.40;10.82;;;;;;;;;;6341479;27;20437;-85
2023/05/18 14:16:24;;;;;;;30.73;12.93;;;;;;;;;;6334204;28;20026;-86
2023/05/18 14:19:25;;;;;;;16.17;7.00;;;;;;;;;;6335921;28;20016;-87
2023/05/18 14:22:25;;;;;;;24.77;7.80;;;;;;;;;;6334520;28;20099;-84
2023/05/18 14:25:25;;;;;;;11.17;6.43;;;;;;;;;;6335656;28;20425;-86
2023/05/18 14:28:25;;;;;;;14.07;6.83;;;;;;;;;;6333477;28;20012;-85
2023/05/18 14:31:25;;;;;;;16.07;6.13;;;;;;;;;;6321486;28;20536;-86
2023/05/18 14:34:26;;;;;;;12.30;5.37;;;;;;;;;;6318348;28;20065;-84
2023/05/18 14:37:27;;;;;;;18.30;7.37;;;;;;;;;;6304436;28;20012;-84
2023/05/18 14:40:28;;;;;;;18.42;6.95;;;;;;;;;;6324891;28;20103;-85
2023/05/18 14:43:28;;;;;;;18.93;8.23;;;;;;;;;;6325312;28;20016;-85
2023/05/18 14:46:29;;;;;;;15.73;7.17;;;;;;;;;;6336070;28;20020;-83
2023/05/18 14:49:29;;;;;;;19.30;8.02;;;;;;;;;;6331272;28;20019;-85
2023/05/18 14:52:31;;;;;;;18.03;6.83;;;;;;;;;;6324146;28;20067;-86
2023/05/18 14:55:31;;;;;;;19.63;7.80;;;;;;;;;;6323150;28;20189;-85
2023/05/18 14:58:31;;;;;;;19.00;8.70;;;;;;;;;;6332642;28;20473;-83
2023/05/18 15:01:31;;;;;;;17.30;7.40;;;;;;;;;;6328760;28;20031;-85
2023/05/18 15:04:32;;;;;;;11.37;5.47;;;;;;;;;;6334995;28;20073;-86
2023/05/18 15:07:32;;;;;;;18.90;8.53;;;;;;;;;;6335944;28;20470;-84
2023/05/18 15:10:32;;;;;;;19.17;7.97;;;;;;;;;;6327974;28;20115;-84
2023/05/18 15:13:33;;;;;;;21.30;9.63;;;;;;;;;;6343316;28;20027;-85
2023/05/18 15:16:34;;;;;;;15.87;8.23;;;;;;;;;;6337397;28;20019;-84
2023/05/18 15:19:34;;;;;;;14.10;7.72;;;;;;;;;;6330740;28;20028;-84
2023/05/18 15:22:37;;;;;;;14.03;5.17;;;;;;;;;;6324503;28;20076;-82
2023/05/18 15:25:38;;;;;;;12.40;5.05;;;;;;;;;;6336091;28;20023;-82
2023/05/18 15:28:42;;;;;;;11.10;4.57;;;;;;;;;;6338959;28;20481;-82
2023/05/18 15:31:42;;;;;;;12.73;5.93;;;;;;;;;;6328336;28;20448;-81
2023/05/18 15:34:42;;;;;;;15.97;7.53;;;;;;;;;;6328739;28;20048;-80
2023/05/18 15:37:43;;;;;;;13.90;5.60;;;;;;;;;;6335536;28;20107;-79
2023/05/18 15:40:46;;;;;;;8.47;4.57;;;;;;;;;;6322150;28;20032;-80
2023/05/18 15:43:46;;;;;;;11.82;5.25;;;;;;;;;;6307968;28;20399;-80
2023/05/18 15:46:46;;;;;;;17.17;6.27;;;;;;;;;;6334625;28;20020;-81
2023/05/18 15:49:47;;;;;;;13.05;5.38;;;;;;;;;;6341539;28;20031;-81
2023/05/18 15:52:47;;;;;;;12.88;4.53;;;;;;;;;;6327478;28;20035;-80
2023/05/18 15:55:49;;;;;;;10.33;5.07;;;;;;;;;;6328658;28;20038;-81
2023/05/18 15:58:49;;;;;;;14.25;3.95;;;;;;;;;;6328720;28;20023;-81
2023/05/18 16:01:50;;;;;;;8.37;3.83;;;;;;;;;;6327410;28;20367;-77
2023/05/18 16:04:50;;;;;;;6.67;3.23;;;;;;;;;;6322880;28;20401;-77
2023/05/18 16:07:50;;;;;;;11.37;3.07;;;;;;;;;;6324366;28;20035;-77
2023/05/18 16:10:50;;;;;;;6.23;3.13;;;;;;;;;;6343518;28;20035;-81
2023/05/18 16:13:54;;;;;;;6.82;4.25;;;;;;;;;;6315879;28;20118;-80
2023/05/18 16:16:54;;;;;;;9.57;4.32;;;;;;;;;;6312101;28;20019;-80
2023/05/18 16:19:54;;;;;;;10.07;4.82;;;;;;;;;;6334700;28;20096;-80
2023/05/18 16:22:54;;;;;;;11.25;5.15;;;;;;;;;;6323489;28;20025;-80
2023/05/18 16:25:54;;;;;;;9.93;4.00;;;;;;;;;;6325212;27;20130;-80
2023/05/18 16:28:55;;;;;;;13.87;5.70;;;;;;;;;;6340876;27;20104;-79
2023/05/18 16:31:55;;;;;;;12.40;5.47;;;;;;;;;;6339662;28;20042;-80
2023/05/18 16:34:55;;;;;;;13.70;5.87;;;;;;;;;;6330057;28;20023;-80
2023/05/18 16:37:56;;;;;;;12.07;6.17;;;;;;;;;;6333341;27;20103;-81
2023/05/18 16:40:56;;;;;;;13.23;6.00;;;;;;;;;;6325922;28;20020;-80
2023/05/18 16:43:57;;;;;;;13.87;5.60;;;;;;;;;;6332065;28;20013;-81
2023/05/18 16:46:58;;;;;;;12.17;6.37;;;;;;;;;;6339517;28;20020;-80
2023/05/18 16:49:58;;;;;;;12.75;6.35;;;;;;;;;;6336024;28;20085;-80
2023/05/18 16:53:00;;;;;;;11.97;5.33;;;;;;;;;;6328139;28;20024;-81
2023/05/18 16:56:00;;;;;;;12.40;5.28;;;;;;;;;;6329998;28;20023;-81
2023/05/18 16:59:01;;;;;;;10.50;5.10;;;;;;;;;;6324119;27;20413;-81
2023/05/18 17:02:02;;;;;;;11.45;5.88;;;;;;;;;;6324545;28;20027;-81
2023/05/18 17:05:02;;;;;;;10.60;4.90;;;;;;;;;;6324082;27;20066;-79
2023/05/18 17:08:03;;;;;;;7.90;3.63;;;;;;;;;;6320877;28;20020;-80
2023/05/18 17:11:03;;;;;;;12.10;4.97;;;;;;;;;;6329758;28;20023;-79
2023/05/18 17:14:03;;;;;;;9.83;4.80;;;;;;;;;;6323604;28;20486;-80
2023/05/18 17:17:04;;;;;;;12.50;5.27;;;;;;;;;;6329279;28;20047;-81
2023/05/18 17:20:05;;;;;;;10.93;5.40;;;;;;;;;;6338958;27;20478;-81
2023/05/18 17:23:05;;;;;;;10.83;5.87;;;;;;;;;;6331900;28;20089;-80
2023/05/18 17:26:06;;;;;;;12.30;5.88;;;;;;;;;;6336178;28;20016;-80
2023/05/18 17:29:06;;;;;;;13.40;5.80;;;;;;;;;;6329119;28;20043;-81
2023/05/18 17:32:06;;;;;;;15.63;6.70;;;;;;;;;;6340208;28;20034;-80
2023/05/18 17:35:08;;;;;;;14.20;6.13;;;;;;;;;;6332539;28;20027;-80
2023/05/18 17:38:08;;;;;;;11.82;6.80;;;;;;;;;;6339664;28;20020;-81
2023/05/18 17:41:08;;;;;;;11.60;5.43;;;;;;;;;;6332527;28;20146;-80
2023/05/18 17:44:12;;;;;;;15.27;7.23;;;;;;;;;;6334133;28;20016;-80